sensor_id;sensor_type;location;lat;lon;timestamp;temperature;humidity
8820;DHT22;4446;50.876;4.736;2022-09-20T00:00:14;11.00;99.90
8820;DHT22;4446;50.876;4.736;2022-09-20T00:02:41;11.00;99.90
8820;DHT22;4446;50.876;4.736;2022-09-20T00:05:09;11.00;99.90
8820;DHT22;4446;50.876;4.736;2022-09-20T00:07:37;11.00;99.90
8820;DHT22;4446;50.876;4.736;2022-09-20T00:10:05;10.90;99.90
8820;DHT22;4446;50.876;4.736;2022-09-20T00:12:32;10.80;99.90
8820;DHT22;4446;50.876;4.736;2022-09-20T00:14:59;10.80;99.90
8820;DHT22;4446;50.876;4.736;2022-09-20T00:17:26;10.70;99.90
8820;DHT22;4446;50.876;4.736;2022-09-20T00:19:53;10.60;99.90
8820;DHT22;4446;50.876;4.736;2022-09-20T00:22:20;10.50;99.90
8820;DHT22;4446;50.876;4.736;2022-09-20T00:24:48;10.40;99.90
8820;DHT22;4446;50.876;4.736;2022-09-20T00:27:15;10.30;99.90
8820;DHT22;4446;50.876;4.736;2022-09-20T00:29:42;10.20;99.90
8820;DHT22;4446;50.876;4.736;2022-09-20T00:32:09;10.10;99.90
8820;DHT22;4446;50.876;4.736;2022-09-20T00:34:36;10.00;99.90
8820;DHT22;4446;50.876;4.736;2022-09-20T00:37:21;9.90;99.90
8820;DHT22;4446;50.876;4.736;2022-09-20T00:39:49;9.90;99.90
8820;DHT22;4446;50.876;4.736;2022-09-20T00:42:16;9.80;99.90
8820;DHT22;4446;50.876;4.736;2022-09-20T00:44:55;9.80;99.90
8820;DHT22;4446;50.876;4.736;2022-09-20T00:47:31;9.70;99.90
8820;DHT22;4446;50.876;4.736;2022-09-20T00:52:50;9.60;99.90
8820;DHT22;4446;50.876;4.736;2022-09-20T00:55:21;9.60;99.90
8820;DHT22;4446;50.876;4.736;2022-09-20T00:57:49;9.60;99.90
8820;DHT22;4446;50.876;4.736;2022-09-20T01:00:16;9.60;99.90
8820;DHT22;4446;50.876;4.736;2022-09-20T01:02:47;9.60;99.90
8820;DHT22;4446;50.876;4.736;2022-09-20T01:05:15;9.70;99.90
8820;DHT22;4446;50.876;4.736;2022-09-20T01:07:46;9.70;99.90
8820;DHT22;4446;50.876;4.736;2022-09-20T01:10:14;9.60;99.90
8820;DHT22;4446;50.876;4.736;2022-09-20T01:12:43;9.60;99.90
8820;DHT22;4446;50.876;4.736;2022-09-20T01:15:11;9.60;99.90
8820;DHT22;4446;50.876;4.736;2022-09-20T01:17:43;9.60;99.90
8820;DHT22;4446;50.876;4.736;2022-09-20T01:20:16;9.50;99.90
8820;DHT22;4446;50.876;4.736;2022-09-20T01:22:56;9.50;99.90
8820;DHT22;4446;50.876;4.736;2022-09-20T01:25:42;9.50;99.90
8820;DHT22;4446;50.876;4.736;2022-09-20T01:28:16;9.40;99.90
8820;DHT22;4446;50.876;4.736;2022-09-20T01:30:47;9.40;99.90
8820;DHT22;4446;50.876;4.736;2022-09-20T01:33:22;9.40;99.90
8820;DHT22;4446;50.876;4.736;2022-09-20T01:35:53;9.40;99.90
8820;DHT22;4446;50.876;4.736;2022-09-20T01:38:31;9.40;99.90
8820;DHT22;4446;50.876;4.736;2022-09-20T01:41:04;9.50;99.90
8820;DHT22;4446;50.876;4.736;2022-09-20T01:43:36;9.60;99.90
8820;DHT22;4446;50.876;4.736;2022-09-20T01:46:15;9.70;99.90
8820;DHT22;4446;50.876;4.736;2022-09-20T01:48:48;9.80;99.90
8820;DHT22;4446;50.876;4.736;2022-09-20T01:51:35;9.80;99.90
8820;DHT22;4446;50.876;4.736;2022-09-20T01:54:41;9.90;99.90
8820;DHT22;4446;50.876;4.736;2022-09-20T01:57:32;10.00;99.90
8820;DHT22;4446;50.876;4.736;2022-09-20T02:00:10;10.10;99.90
8820;DHT22;4446;50.876;4.736;2022-09-20T02:03:06;10.20;99.90
8820;DHT22;4446;50.876;4.736;2022-09-20T02:05:49;10.20;99.90
8820;DHT22;4446;50.876;4.736;2022-09-20T02:08:48;10.20;99.90
8820;DHT22;4446;50.876;4.736;2022-09-20T02:11:24;10.30;99.90
8820;DHT22;4446;50.876;4.736;2022-09-20T02:14:04;10.20;99.90
8820;DHT22;4446;50.876;4.736;2022-09-20T02:16:50;10.30;99.90
8820;DHT22;4446;50.876;4.736;2022-09-20T02:19:27;10.30;99.90
8820;DHT22;4446;50.876;4.736;2022-09-20T02:22:08;10.30;99.90
8820;DHT22;4446;50.876;4.736;2022-09-20T02:24:43;10.40;99.90
8820;DHT22;4446;50.876;4.736;2022-09-20T02:27:21;10.40;99.90
8820;DHT22;4446;50.876;4.736;2022-09-20T02:29:59;10.40;99.90
8820;DHT22;4446;50.876;4.736;2022-09-20T02:32:53;10.40;99.90
8820;DHT22;4446;50.876;4.736;2022-09-20T02:35:34;10.40;99.90
8820;DHT22;4446;50.876;4.736;2022-09-20T02:38:20;10.40;99.90
8820;DHT22;4446;50.876;4.736;2022-09-20T02:41:22;10.40;99.90
8820;DHT22;4446;50.876;4.736;2022-09-20T02:43:57;10.40;99.90
8820;DHT22;4446;50.876;4.736;2022-09-20T02:46:30;10.50;99.90
8820;DHT22;4446;50.876;4.736;2022-09-20T02:49:06;10.50;99.90
8820;DHT22;4446;50.876;4.736;2022-09-20T02:51:39;10.50;99.90
8820;DHT22;4446;50.876;4.736;2022-09-20T02:54:15;10.50;99.90
8820;DHT22;4446;50.876;4.736;2022-09-20T02:56:50;10.50;99.90
8820;DHT22;4446;50.876;4.736;2022-09-20T02:59:25;10.50;99.90
8820;DHT22;4446;50.876;4.736;2022-09-20T03:02:05;10.40;99.90
8820;DHT22;4446;50.876;4.736;2022-09-20T03:04:44;10.40;99.90
8820;DHT22;4446;50.876;4.736;2022-09-20T03:07:21;10.50;99.90
8820;DHT22;4446;50.876;4.736;2022-09-20T03:10:06;10.50;99.90
8820;DHT22;4446;50.876;4.736;2022-09-20T03:12:55;10.40;99.90
8820;DHT22;4446;50.876;4.736;2022-09-20T03:15:30;10.40;99.90
8820;DHT22;4446;50.876;4.736;2022-09-20T03:18:07;10.40;99.90
8820;DHT22;4446;50.876;4.736;2022-09-20T03:20:46;10.40;99.90
8820;DHT22;4446;50.876;4.736;2022-09-20T03:23:34;10.40;99.90
8820;DHT22;4446;50.876;4.736;2022-09-20T03:26:12;10.40;99.90
8820;DHT22;4446;50.876;4.736;2022-09-20T03:28:58;10.50;99.90
8820;DHT22;4446;50.876;4.736;2022-09-20T03:31:37;10.50;99.90
8820;DHT22;4446;50.876;4.736;2022-09-20T03:34:17;10.50;99.90
8820;DHT22;4446;50.876;4.736;2022-09-20T03:37:02;10.50;99.90
8820;DHT22;4446;50.876;4.736;2022-09-20T03:39:55;10.50;99.90
8820;DHT22;4446;50.876;4.736;2022-09-20T03:42:28;10.50;99.90
8820;DHT22;4446;50.876;4.736;2022-09-20T03:48:12;10.50;99.90
8820;DHT22;4446;50.876;4.736;2022-09-20T03:51:01;10.60;99.90
8820;DHT22;4446;50.876;4.736;2022-09-20T03:56:52;10.60;99.90
8820;DHT22;4446;50.876;4.736;2022-09-20T03:59:57;10.60;99.90
8820;DHT22;4446;50.876;4.736;2022-09-20T04:02:44;10.70;99.90
8820;DHT22;4446;50.876;4.736;2022-09-20T04:05:20;10.70;99.90
8820;DHT22;4446;50.876;4.736;2022-09-20T04:07:57;10.60;99.90
8820;DHT22;4446;50.876;4.736;2022-09-20T04:10:35;10.60;99.90
8820;DHT22;4446;50.876;4.736;2022-09-20T04:13:19;10.70;99.90
8820;DHT22;4446;50.876;4.736;2022-09-20T04:16:02;10.60;99.90
8820;DHT22;4446;50.876;4.736;2022-09-20T04:18:36;10.60;99.90
8820;DHT22;4446;50.876;4.736;2022-09-20T04:21:09;10.60;99.90
8820;DHT22;4446;50.876;4.736;2022-09-20T04:23:44;10.50;99.90
8820;DHT22;4446;50.876;4.736;2022-09-20T04:26:15;10.50;99.90
8820;DHT22;4446;50.876;4.736;2022-09-20T04:28:47;10.50;99.90
8820;DHT22;4446;50.876;4.736;2022-09-20T04:31:24;10.40;99.90
8820;DHT22;4446;50.876;4.736;2022-09-20T04:33:56;10.40;99.90
8820;DHT22;4446;50.876;4.736;2022-09-20T04:39:38;10.40;99.90
8820;DHT22;4446;50.876;4.736;2022-09-20T04:48:41;10.50;99.90
8820;DHT22;4446;50.876;4.736;2022-09-20T04:54:45;10.80;99.90
8820;DHT22;4446;50.876;4.736;2022-09-20T04:57:55;10.80;99.90
8820;DHT22;4446;50.876;4.736;2022-09-20T05:00:41;10.90;99.90
8820;DHT22;4446;50.876;4.736;2022-09-20T05:03:36;10.80;99.90
8820;DHT22;4446;50.876;4.736;2022-09-20T05:09:31;10.80;99.90
8820;DHT22;4446;50.876;4.736;2022-09-20T05:12:27;10.80;99.90
8820;DHT22;4446;50.876;4.736;2022-09-20T05:15:22;10.80;99.90
8820;DHT22;4446;50.876;4.736;2022-09-20T05:21:27;10.70;99.90
8820;DHT22;4446;50.876;4.736;2022-09-20T05:24:10;10.60;99.90
8820;DHT22;4446;50.876;4.736;2022-09-20T05:26:51;10.60;99.90
8820;DHT22;4446;50.876;4.736;2022-09-20T05:29:25;10.50;99.90
8820;DHT22;4446;50.876;4.736;2022-09-20T05:32:00;10.40;99.90
8820;DHT22;4446;50.876;4.736;2022-09-20T05:34:34;10.30;99.90
8820;DHT22;4446;50.876;4.736;2022-09-20T05:37:15;10.20;99.90
8820;DHT22;4446;50.876;4.736;2022-09-20T05:39:51;10.10;99.90
8820;DHT22;4446;50.876;4.736;2022-09-20T05:42:30;10.00;99.90
8820;DHT22;4446;50.876;4.736;2022-09-20T05:45:16;10.00;99.90
8820;DHT22;4446;50.876;4.736;2022-09-20T05:47:51;9.90;99.90
8820;DHT22;4446;50.876;4.736;2022-09-20T05:50:33;9.90;99.90
8820;DHT22;4446;50.876;4.736;2022-09-20T05:53:37;9.80;99.90
8820;DHT22;4446;50.876;4.736;2022-09-20T05:56:16;9.80;99.90
8820;DHT22;4446;50.876;4.736;2022-09-20T05:58:53;9.80;99.90
8820;DHT22;4446;50.876;4.736;2022-09-20T06:01:25;9.70;99.90
8820;DHT22;4446;50.876;4.736;2022-09-20T06:04:03;9.70;99.90
8820;DHT22;4446;50.876;4.736;2022-09-20T06:06:38;9.70;99.90
8820;DHT22;4446;50.876;4.736;2022-09-20T06:09:36;9.70;99.90
8820;DHT22;4446;50.876;4.736;2022-09-20T06:12:25;9.60;99.90
8820;DHT22;4446;50.876;4.736;2022-09-20T06:15:01;9.60;99.90
8820;DHT22;4446;50.876;4.736;2022-09-20T06:17:35;9.70;99.90
8820;DHT22;4446;50.876;4.736;2022-09-20T06:20:14;9.70;99.90
8820;DHT22;4446;50.876;4.736;2022-09-20T06:22:48;9.70;99.90
8820;DHT22;4446;50.876;4.736;2022-09-20T06:25:23;9.70;99.90
8820;DHT22;4446;50.876;4.736;2022-09-20T06:27:54;9.70;99.90
8820;DHT22;4446;50.876;4.736;2022-09-20T06:30:27;9.90;99.90
8820;DHT22;4446;50.876;4.736;2022-09-20T06:32:56;10.00;99.90
8820;DHT22;4446;50.876;4.736;2022-09-20T06:35:30;10.20;99.90
8820;DHT22;4446;50.876;4.736;2022-09-20T06:38:07;10.30;99.90
8820;DHT22;4446;50.876;4.736;2022-09-20T06:40:57;10.30;99.90
8820;DHT22;4446;50.876;4.736;2022-09-20T06:43:41;10.40;99.90
8820;DHT22;4446;50.876;4.736;2022-09-20T06:46:08;10.40;99.90
8820;DHT22;4446;50.876;4.736;2022-09-20T06:48:37;10.40;99.90
8820;DHT22;4446;50.876;4.736;2022-09-20T06:51:05;10.40;99.90
8820;DHT22;4446;50.876;4.736;2022-09-20T06:53:36;10.40;99.90
8820;DHT22;4446;50.876;4.736;2022-09-20T06:56:08;10.40;99.90
8820;DHT22;4446;50.876;4.736;2022-09-20T06:58:35;10.40;99.90
8820;DHT22;4446;50.876;4.736;2022-09-20T07:01:02;10.40;99.90
8820;DHT22;4446;50.876;4.736;2022-09-20T07:03:29;10.50;99.90
8820;DHT22;4446;50.876;4.736;2022-09-20T07:05:57;10.50;99.90
8820;DHT22;4446;50.876;4.736;2022-09-20T07:08:25;10.50;99.90
8820;DHT22;4446;50.876;4.736;2022-09-20T07:10:52;10.60;99.90
8820;DHT22;4446;50.876;4.736;2022-09-20T07:13:20;10.70;99.90
8820;DHT22;4446;50.876;4.736;2022-09-20T07:15:48;10.70;99.90
8820;DHT22;4446;50.876;4.736;2022-09-20T07:18:16;10.80;99.90
8820;DHT22;4446;50.876;4.736;2022-09-20T07:20:43;10.90;99.90
8820;DHT22;4446;50.876;4.736;2022-09-20T07:23:10;11.10;99.90
8820;DHT22;4446;50.876;4.736;2022-09-20T07:25:37;11.00;99.90
8820;DHT22;4446;50.876;4.736;2022-09-20T07:28:04;11.10;99.90
8820;DHT22;4446;50.876;4.736;2022-09-20T07:30:33;11.20;99.90
8820;DHT22;4446;50.876;4.736;2022-09-20T07:33:00;11.30;99.90
8820;DHT22;4446;50.876;4.736;2022-09-20T07:35:27;11.30;99.90
8820;DHT22;4446;50.876;4.736;2022-09-20T07:37:57;11.40;99.90
8820;DHT22;4446;50.876;4.736;2022-09-20T07:40:24;11.40;99.90
8820;DHT22;4446;50.876;4.736;2022-09-20T07:42:52;11.60;99.90
8820;DHT22;4446;50.876;4.736;2022-09-20T07:45:19;11.70;99.90
8820;DHT22;4446;50.876;4.736;2022-09-20T07:47:47;11.80;99.90
8820;DHT22;4446;50.876;4.736;2022-09-20T07:50:14;11.80;99.90
8820;DHT22;4446;50.876;4.736;2022-09-20T07:52:41;12.00;99.90
8820;DHT22;4446;50.876;4.736;2022-09-20T07:55:08;12.10;99.90
8820;DHT22;4446;50.876;4.736;2022-09-20T07:57:36;12.20;99.90
8820;DHT22;4446;50.876;4.736;2022-09-20T08:00:05;12.30;99.90
8820;DHT22;4446;50.876;4.736;2022-09-20T08:02:33;12.40;99.90
8820;DHT22;4446;50.876;4.736;2022-09-20T08:05:02;12.50;99.90
8820;DHT22;4446;50.876;4.736;2022-09-20T08:07:29;12.60;99.90
8820;DHT22;4446;50.876;4.736;2022-09-20T08:09:56;12.60;99.90
8820;DHT22;4446;50.876;4.736;2022-09-20T08:12:24;12.80;99.90
8820;DHT22;4446;50.876;4.736;2022-09-20T08:14:51;12.90;99.90
8820;DHT22;4446;50.876;4.736;2022-09-20T08:17:18;13.20;99.90
8820;DHT22;4446;50.876;4.736;2022-09-20T08:19:45;13.30;99.90
8820;DHT22;4446;50.876;4.736;2022-09-20T08:22:13;13.30;99.90
8820;DHT22;4446;50.876;4.736;2022-09-20T08:24:40;13.50;99.90
8820;DHT22;4446;50.876;4.736;2022-09-20T08:27:08;13.70;99.90
8820;DHT22;4446;50.876;4.736;2022-09-20T08:29:36;13.90;99.90
8820;DHT22;4446;50.876;4.736;2022-09-20T08:32:03;14.00;99.90
8820;DHT22;4446;50.876;4.736;2022-09-20T08:34:30;14.00;99.90
8820;DHT22;4446;50.876;4.736;2022-09-20T08:36:57;14.00;99.90
8820;DHT22;4446;50.876;4.736;2022-09-20T08:39:26;14.00;99.90
8820;DHT22;4446;50.876;4.736;2022-09-20T08:41:55;13.80;99.90
8820;DHT22;4446;50.876;4.736;2022-09-20T08:44:27;13.70;99.90
8820;DHT22;4446;50.876;4.736;2022-09-20T08:47:04;13.80;99.90
8820;DHT22;4446;50.876;4.736;2022-09-20T08:49:35;13.80;99.90
8820;DHT22;4446;50.876;4.736;2022-09-20T08:52:03;13.80;99.90
8820;DHT22;4446;50.876;4.736;2022-09-20T08:54:33;13.80;99.90
8820;DHT22;4446;50.876;4.736;2022-09-20T08:57:02;13.80;99.90
8820;DHT22;4446;50.876;4.736;2022-09-20T08:59:32;13.90;99.90
8820;DHT22;4446;50.876;4.736;2022-09-20T09:01:59;14.00;99.90
8820;DHT22;4446;50.876;4.736;2022-09-20T09:04:34;14.20;99.90
8820;DHT22;4446;50.876;4.736;2022-09-20T09:07:02;14.30;99.90
8820;DHT22;4446;50.876;4.736;2022-09-20T09:09:29;14.50;99.90
8820;DHT22;4446;50.876;4.736;2022-09-20T09:11:59;14.60;99.90
8820;DHT22;4446;50.876;4.736;2022-09-20T09:14:28;14.70;99.90
8820;DHT22;4446;50.876;4.736;2022-09-20T09:17:16;14.80;99.90
8820;DHT22;4446;50.876;4.736;2022-09-20T09:19:45;14.80;99.90
8820;DHT22;4446;50.876;4.736;2022-09-20T09:22:19;14.80;99.90
8820;DHT22;4446;50.876;4.736;2022-09-20T09:25:05;14.80;99.90
8820;DHT22;4446;50.876;4.736;2022-09-20T09:27:34;14.90;99.90
8820;DHT22;4446;50.876;4.736;2022-09-20T09:30:19;14.90;99.90
8820;DHT22;4446;50.876;4.736;2022-09-20T09:32:47;15.20;99.90
8820;DHT22;4446;50.876;4.736;2022-09-20T09:35:28;15.40;99.90
8820;DHT22;4446;50.876;4.736;2022-09-20T09:37:58;15.60;99.90
8820;DHT22;4446;50.876;4.736;2022-09-20T09:40:26;16.00;99.90
8820;DHT22;4446;50.876;4.736;2022-09-20T09:42:59;16.30;99.90
8820;DHT22;4446;50.876;4.736;2022-09-20T09:45:29;16.50;99.90
8820;DHT22;4446;50.876;4.736;2022-09-20T09:48:17;16.30;99.90
8820;DHT22;4446;50.876;4.736;2022-09-20T09:50:44;16.20;99.90
8820;DHT22;4446;50.876;4.736;2022-09-20T09:53:14;16.50;99.90
8820;DHT22;4446;50.876;4.736;2022-09-20T09:55:55;16.60;99.90
8820;DHT22;4446;50.876;4.736;2022-09-20T09:58:41;16.50;99.90
8820;DHT22;4446;50.876;4.736;2022-09-20T10:01:16;16.50;99.90
8820;DHT22;4446;50.876;4.736;2022-09-20T10:03:52;16.70;99.90
8820;DHT22;4446;50.876;4.736;2022-09-20T10:06:28;16.90;99.90
8820;DHT22;4446;50.876;4.736;2022-09-20T10:09:19;16.90;99.90
8820;DHT22;4446;50.876;4.736;2022-09-20T10:12:01;16.90;99.90
8820;DHT22;4446;50.876;4.736;2022-09-20T10:14:50;17.20;99.90
8820;DHT22;4446;50.876;4.736;2022-09-20T10:17:33;17.30;99.90
8820;DHT22;4446;50.876;4.736;2022-09-20T10:20:21;17.60;99.90
8820;DHT22;4446;50.876;4.736;2022-09-20T10:23:00;17.70;99.90
8820;DHT22;4446;50.876;4.736;2022-09-20T10:25:36;17.60;99.90
8820;DHT22;4446;50.876;4.736;2022-09-20T10:28:14;17.60;99.90
8820;DHT22;4446;50.876;4.736;2022-09-20T10:30:55;17.90;99.90
8820;DHT22;4446;50.876;4.736;2022-09-20T10:33:34;17.90;99.90
8820;DHT22;4446;50.876;4.736;2022-09-20T10:36:17;18.10;99.90
8820;DHT22;4446;50.876;4.736;2022-09-20T10:38:53;18.20;99.90
8820;DHT22;4446;50.876;4.736;2022-09-20T10:41:37;18.30;99.90
8820;DHT22;4446;50.876;4.736;2022-09-20T10:44:56;18.40;99.90
8820;DHT22;4446;50.876;4.736;2022-09-20T10:47:33;18.40;99.90
8820;DHT22;4446;50.876;4.736;2022-09-20T10:50:06;18.10;99.90
8820;DHT22;4446;50.876;4.736;2022-09-20T10:53:00;18.00;99.90
8820;DHT22;4446;50.876;4.736;2022-09-20T10:55:36;17.90;99.90
8820;DHT22;4446;50.876;4.736;2022-09-20T11:01:12;17.90;99.90
8820;DHT22;4446;50.876;4.736;2022-09-20T11:04:19;17.90;99.90
8820;DHT22;4446;50.876;4.736;2022-09-20T11:06:57;17.90;99.90
8820;DHT22;4446;50.876;4.736;2022-09-20T11:09:32;18.00;99.90
8820;DHT22;4446;50.876;4.736;2022-09-20T11:12:08;18.20;99.90
8820;DHT22;4446;50.876;4.736;2022-09-20T11:14:41;18.40;99.90
8820;DHT22;4446;50.876;4.736;2022-09-20T11:17:13;18.40;99.90
8820;DHT22;4446;50.876;4.736;2022-09-20T11:19:49;18.20;99.90
8820;DHT22;4446;50.876;4.736;2022-09-20T11:22:19;18.00;99.90
8820;DHT22;4446;50.876;4.736;2022-09-20T11:24:50;18.30;99.90
8820;DHT22;4446;50.876;4.736;2022-09-20T11:27:23;18.30;99.90
8820;DHT22;4446;50.876;4.736;2022-09-20T11:29:57;18.20;99.90
8820;DHT22;4446;50.876;4.736;2022-09-20T11:32:29;18.30;99.90
8820;DHT22;4446;50.876;4.736;2022-09-20T11:35:02;18.20;99.90
8820;DHT22;4446;50.876;4.736;2022-09-20T11:37:35;18.40;99.90
8820;DHT22;4446;50.876;4.736;2022-09-20T11:40:20;18.50;99.90
8820;DHT22;4446;50.876;4.736;2022-09-20T11:42:49;18.40;99.90
8820;DHT22;4446;50.876;4.736;2022-09-20T11:45:17;18.60;99.90
8820;DHT22;4446;50.876;4.736;2022-09-20T11:47:47;18.60;99.90
8820;DHT22;4446;50.876;4.736;2022-09-20T11:50:49;18.80;99.90
8820;DHT22;4446;50.876;4.736;2022-09-20T11:53:34;19.00;99.90
8820;DHT22;4446;50.876;4.736;2022-09-20T11:56:14;19.50;99.90
8820;DHT22;4446;50.876;4.736;2022-09-20T11:58:44;19.40;99.90
8820;DHT22;4446;50.876;4.736;2022-09-20T12:01:15;19.40;99.90
8820;DHT22;4446;50.876;4.736;2022-09-20T12:03:46;19.30;99.90
8820;DHT22;4446;50.876;4.736;2022-09-20T12:06:27;19.10;99.90
8820;DHT22;4446;50.876;4.736;2022-09-20T12:09:05;19.20;99.90
8820;DHT22;4446;50.876;4.736;2022-09-20T12:11:35;19.20;99.90
8820;DHT22;4446;50.876;4.736;2022-09-20T12:14:05;19.20;99.90
8820;DHT22;4446;50.876;4.736;2022-09-20T12:16:38;19.20;99.90
8820;DHT22;4446;50.876;4.736;2022-09-20T12:19:07;18.90;99.90
8820;DHT22;4446;50.876;4.736;2022-09-20T12:24:40;19.30;99.90
8820;DHT22;4446;50.876;4.736;2022-09-20T12:30:30;19.30;99.90
8820;DHT22;4446;50.876;4.736;2022-09-20T12:32:58;19.40;99.90
8820;DHT22;4446;50.876;4.736;2022-09-20T12:35:58;19.50;99.90
8820;DHT22;4446;50.876;4.736;2022-09-20T12:38:32;19.40;99.90
8820;DHT22;4446;50.876;4.736;2022-09-20T12:41:05;19.30;99.90
8820;DHT22;4446;50.876;4.736;2022-09-20T12:43:35;19.10;99.90
8820;DHT22;4446;50.876;4.736;2022-09-20T12:46:03;18.70;99.90
8820;DHT22;4446;50.876;4.736;2022-09-20T12:48:34;18.50;99.90
8820;DHT22;4446;50.876;4.736;2022-09-20T12:51:05;18.10;99.90
8820;DHT22;4446;50.876;4.736;2022-09-20T12:54:02;17.70;99.90
8820;DHT22;4446;50.876;4.736;2022-09-20T12:56:34;17.50;99.90
8820;DHT22;4446;50.876;4.736;2022-09-20T12:59:02;17.50;99.90
8820;DHT22;4446;50.876;4.736;2022-09-20T13:01:37;17.70;99.90
8820;DHT22;4446;50.876;4.736;2022-09-20T13:04:40;17.80;99.90
8820;DHT22;4446;50.876;4.736;2022-09-20T13:07:35;17.90;99.90
8820;DHT22;4446;50.876;4.736;2022-09-20T13:10:18;18.00;99.90
8820;DHT22;4446;50.876;4.736;2022-09-20T13:12:51;18.40;99.90
8820;DHT22;4446;50.876;4.736;2022-09-20T13:15:20;18.40;99.90
8820;DHT22;4446;50.876;4.736;2022-09-20T13:17:50;18.40;99.90
8820;DHT22;4446;50.876;4.736;2022-09-20T13:20:22;18.60;99.90
8820;DHT22;4446;50.876;4.736;2022-09-20T13:22:51;18.90;99.90
8820;DHT22;4446;50.876;4.736;2022-09-20T13:25:20;19.10;99.90
8820;DHT22;4446;50.876;4.736;2022-09-20T13:28:05;19.30;99.90
8820;DHT22;4446;50.876;4.736;2022-09-20T13:30:33;19.50;99.90
8820;DHT22;4446;50.876;4.736;2022-09-20T13:33:15;19.60;99.90
8820;DHT22;4446;50.876;4.736;2022-09-20T13:35:44;19.50;99.90
8820;DHT22;4446;50.876;4.736;2022-09-20T13:38:13;19.30;99.90
8820;DHT22;4446;50.876;4.736;2022-09-20T13:40:45;19.30;99.90
8820;DHT22;4446;50.876;4.736;2022-09-20T13:43:23;19.00;99.90
8820;DHT22;4446;50.876;4.736;2022-09-20T13:45:54;19.00;99.90
8820;DHT22;4446;50.876;4.736;2022-09-20T13:48:23;19.10;99.90
8820;DHT22;4446;50.876;4.736;2022-09-20T13:50:51;19.10;99.90
8820;DHT22;4446;50.876;4.736;2022-09-20T13:53:21;19.00;99.90
8820;DHT22;4446;50.876;4.736;2022-09-20T13:55:50;18.90;99.90
8820;DHT22;4446;50.876;4.736;2022-09-20T13:58:24;19.00;99.90
8820;DHT22;4446;50.876;4.736;2022-09-20T14:00:54;18.80;99.90
8820;DHT22;4446;50.876;4.736;2022-09-20T14:03:22;18.80;99.90
8820;DHT22;4446;50.876;4.736;2022-09-20T14:05:51;18.80;99.90
8820;DHT22;4446;50.876;4.736;2022-09-20T14:08:22;18.70;99.90
8820;DHT22;4446;50.876;4.736;2022-09-20T14:11:03;18.70;99.90
8820;DHT22;4446;50.876;4.736;2022-09-20T14:13:37;18.70;99.90
8820;DHT22;4446;50.876;4.736;2022-09-20T14:16:06;18.70;99.90
8820;DHT22;4446;50.876;4.736;2022-09-20T14:18:34;18.60;99.90
8820;DHT22;4446;50.876;4.736;2022-09-20T14:21:04;18.50;99.90
8820;DHT22;4446;50.876;4.736;2022-09-20T14:23:48;18.70;99.90
8820;DHT22;4446;50.876;4.736;2022-09-20T14:26:25;19.40;99.90
8820;DHT22;4446;50.876;4.736;2022-09-20T14:28:53;19.90;99.90
8820;DHT22;4446;50.876;4.736;2022-09-20T14:31:23;19.90;99.90
8820;DHT22;4446;50.876;4.736;2022-09-20T14:33:53;19.50;99.90
8820;DHT22;4446;50.876;4.736;2022-09-20T14:36:22;19.40;99.90
8820;DHT22;4446;50.876;4.736;2022-09-20T14:38:52;19.20;99.90
8820;DHT22;4446;50.876;4.736;2022-09-20T14:41:30;19.20;99.90
8820;DHT22;4446;50.876;4.736;2022-09-20T14:44:00;19.40;99.90
8820;DHT22;4446;50.876;4.736;2022-09-20T14:46:30;19.60;99.90
8820;DHT22;4446;50.876;4.736;2022-09-20T14:49:17;19.70;99.90
8820;DHT22;4446;50.876;4.736;2022-09-20T14:51:45;19.30;99.90
8820;DHT22;4446;50.876;4.736;2022-09-20T14:54:24;19.00;99.90
8820;DHT22;4446;50.876;4.736;2022-09-20T14:56:54;18.80;99.90
8820;DHT22;4446;50.876;4.736;2022-09-20T14:59:36;18.50;99.90
8820;DHT22;4446;50.876;4.736;2022-09-20T15:02:12;18.20;99.90
8820;DHT22;4446;50.876;4.736;2022-09-20T15:04:51;17.90;99.90
8820;DHT22;4446;50.876;4.736;2022-09-20T15:07:19;17.70;99.90
8820;DHT22;4446;50.876;4.736;2022-09-20T15:09:46;17.50;99.90
8820;DHT22;4446;50.876;4.736;2022-09-20T15:12:15;17.20;99.90
8820;DHT22;4446;50.876;4.736;2022-09-20T15:14:44;17.10;99.90
8820;DHT22;4446;50.876;4.736;2022-09-20T15:17:14;17.00;99.90
8820;DHT22;4446;50.876;4.736;2022-09-20T15:19:41;17.00;99.90
8820;DHT22;4446;50.876;4.736;2022-09-20T15:22:09;17.00;99.90
8820;DHT22;4446;50.876;4.736;2022-09-20T15:24:37;17.00;99.90
8820;DHT22;4446;50.876;4.736;2022-09-20T15:27:04;17.00;99.90
8820;DHT22;4446;50.876;4.736;2022-09-20T15:29:31;17.10;99.90
8820;DHT22;4446;50.876;4.736;2022-09-20T15:32:00;17.20;99.90
8820;DHT22;4446;50.876;4.736;2022-09-20T15:34:30;17.20;99.90
8820;DHT22;4446;50.876;4.736;2022-09-20T15:36:59;17.20;99.90
8820;DHT22;4446;50.876;4.736;2022-09-20T15:39:27;17.20;99.90
8820;DHT22;4446;50.876;4.736;2022-09-20T15:41:54;17.10;99.90
8820;DHT22;4446;50.876;4.736;2022-09-20T15:44:21;17.10;99.90
8820;DHT22;4446;50.876;4.736;2022-09-20T15:46:51;17.30;99.90
8820;DHT22;4446;50.876;4.736;2022-09-20T15:49:20;18.00;99.90
8820;DHT22;4446;50.876;4.736;2022-09-20T15:51:47;18.60;99.90
8820;DHT22;4446;50.876;4.736;2022-09-20T15:54:15;19.30;99.90
8820;DHT22;4446;50.876;4.736;2022-09-20T15:56:43;19.80;99.90
8820;DHT22;4446;50.876;4.736;2022-09-20T15:59:11;20.10;99.90
8820;DHT22;4446;50.876;4.736;2022-09-20T16:01:41;19.80;99.90
8820;DHT22;4446;50.876;4.736;2022-09-20T16:04:10;19.30;99.90
8820;DHT22;4446;50.876;4.736;2022-09-20T16:06:40;18.60;99.90
8820;DHT22;4446;50.876;4.736;2022-09-20T16:09:08;18.10;99.90
8820;DHT22;4446;50.876;4.736;2022-09-20T16:11:36;17.80;99.90
8820;DHT22;4446;50.876;4.736;2022-09-20T16:14:03;17.50;99.90
8820;DHT22;4446;50.876;4.736;2022-09-20T16:16:32;17.30;99.90
8820;DHT22;4446;50.876;4.736;2022-09-20T16:18:59;17.00;99.90
8820;DHT22;4446;50.876;4.736;2022-09-20T16:21:48;16.80;99.90
8820;DHT22;4446;50.876;4.736;2022-09-20T16:24:18;16.60;99.90
8820;DHT22;4446;50.876;4.736;2022-09-20T16:26:48;16.50;99.90
8820;DHT22;4446;50.876;4.736;2022-09-20T16:29:15;16.20;99.90
8820;DHT22;4446;50.876;4.736;2022-09-20T16:31:43;16.10;99.90
8820;DHT22;4446;50.876;4.736;2022-09-20T16:34:13;16.10;99.90
8820;DHT22;4446;50.876;4.736;2022-09-20T16:36:41;16.10;99.90
8820;DHT22;4446;50.876;4.736;2022-09-20T16:39:12;16.10;99.90
8820;DHT22;4446;50.876;4.736;2022-09-20T16:41:39;16.10;99.90
8820;DHT22;4446;50.876;4.736;2022-09-20T16:44:07;16.10;99.90
8820;DHT22;4446;50.876;4.736;2022-09-20T16:46:34;16.00;99.90
8820;DHT22;4446;50.876;4.736;2022-09-20T16:49:04;15.90;99.90
8820;DHT22;4446;50.876;4.736;2022-09-20T16:51:33;15.90;99.90
8820;DHT22;4446;50.876;4.736;2022-09-20T16:54:01;15.70;99.90
8820;DHT22;4446;50.876;4.736;2022-09-20T16:56:32;15.50;99.90
8820;DHT22;4446;50.876;4.736;2022-09-20T16:58:59;15.20;99.90
8820;DHT22;4446;50.876;4.736;2022-09-20T17:01:28;14.90;99.90
8820;DHT22;4446;50.876;4.736;2022-09-20T17:03:56;14.70;99.90
8820;DHT22;4446;50.876;4.736;2022-09-20T17:06:24;14.50;99.90
8820;DHT22;4446;50.876;4.736;2022-09-20T17:08:52;14.30;99.90
8820;DHT22;4446;50.876;4.736;2022-09-20T17:11:21;14.20;99.90
8820;DHT22;4446;50.876;4.736;2022-09-20T17:13:51;14.00;99.90
8820;DHT22;4446;50.876;4.736;2022-09-20T17:16:20;13.90;99.90
8820;DHT22;4446;50.876;4.736;2022-09-20T17:18:51;13.70;99.90
8820;DHT22;4446;50.876;4.736;2022-09-20T17:21:19;13.60;99.90
8820;DHT22;4446;50.876;4.736;2022-09-20T17:23:48;13.50;99.90
8820;DHT22;4446;50.876;4.736;2022-09-20T17:26:21;13.40;99.90
8820;DHT22;4446;50.876;4.736;2022-09-20T17:28:53;13.40;99.90